sensor_id;sensor_type;location;lat;lon;timestamp;temperature;humidity
42803;DHT22;28447;48.682;9.022;2023-07-09T04:01:34;17.20;99.90
42803;DHT22;28447;48.682;9.022;2023-07-09T04:03:59;17.20;99.90
42803;DHT22;28447;48.682;9.022;2023-07-09T04:06:25;17.20;99.90
42803;DHT22;28447;48.682;9.022;2023-07-09T04:08:51;17.30;99.90
42803;DHT22;28447;48.682;9.022;2023-07-09T04:11:16;17.40;99.90
42803;DHT22;28447;48.682;9.022;2023-07-09T04:13:42;17.40;99.90
42803;DHT22;28447;48.682;9.022;2023-07-09T04:16:08;17.40;99.90
42803;DHT22;28447;48.682;9.022;2023-07-09T04:18:34;17.40;99.90
42803;DHT22;28447;48.682;9.022;2023-07-09T04:21:01;17.50;99.90
42803;DHT22;28447;48.682;9.022;2023-07-09T04:23:27;17.70;99.90
42803;DHT22;28447;48.682;9.022;2023-07-09T04:25:53;17.80;99.90
42803;DHT22;28447;48.682;9.022;2023-07-09T04:28:18;17.70;99.90
42803;DHT22;28447;48.682;9.022;2023-07-09T04:30:51;17.70;99.90
42803;DHT22;28447;48.682;9.022;2023-07-09T04:33:18;17.70;99.90
42803;DHT22;28447;48.682;9.022;2023-07-09T04:35:47;17.70;99.90
42803;DHT22;28447;48.682;9.022;2023-07-09T04:38:14;17.80;99.90
42803;DHT22;28447;48.682;9.022;2023-07-09T04:40:40;18.10;99.90
42803;DHT22;28447;48.682;9.022;2023-07-09T04:43:06;18.20;99.90
42803;DHT22;28447;48.682;9.022;2023-07-09T04:45:32;18.30;99.90
42803;DHT22;28447;48.682;9.022;2023-07-09T04:47:57;18.50;99.90
42803;DHT22;28447;48.682;9.022;2023-07-09T04:50:23;18.60;99.90
42803;DHT22;28447;48.682;9.022;2023-07-09T04:52:49;18.90;99.90
42803;DHT22;28447;48.682;9.022;2023-07-09T04:55:14;19.00;99.90
42803;DHT22;28447;48.682;9.022;2023-07-09T04:57:40;18.80;99.90
42803;DHT22;28447;48.682;9.022;2023-07-09T05:00:06;18.80;99.90
42803;DHT22;28447;48.682;9.022;2023-07-09T05:02:33;18.90;99.90
42803;DHT22;28447;48.682;9.022;2023-07-09T05:04:59;19.10;99.90
42803;DHT22;28447;48.682;9.022;2023-07-09T05:07:25;19.20;99.90
42803;DHT22;28447;48.682;9.022;2023-07-09T05:09:51;19.40;99.90
42803;DHT22;28447;48.682;9.022;2023-07-09T05:12:17;19.50;99.90
42803;DHT22;28447;48.682;9.022;2023-07-09T05:14:42;19.80;99.90
42803;DHT22;28447;48.682;9.022;2023-07-09T05:17:08;19.90;99.90
42803;DHT22;28447;48.682;9.022;2023-07-09T05:19:35;20.10;99.90
42803;DHT22;28447;48.682;9.022;2023-07-09T05:22:07;20.30;99.90
42803;DHT22;28447;48.682;9.022;2023-07-09T05:24:32;20.50;99.90
42803;DHT22;28447;48.682;9.022;2023-07-09T05:26:58;20.50;99.90
42803;DHT22;28447;48.682;9.022;2023-07-09T05:29:25;20.60;99.90
42803;DHT22;28447;48.682;9.022;2023-07-09T05:31:50;20.70;99.90
42803;DHT22;28447;48.682;9.022;2023-07-09T05:34:16;20.70;99.90
42803;DHT22;28447;48.682;9.022;2023-07-09T05:36:42;20.80;99.90
42803;DHT22;28447;48.682;9.022;2023-07-09T05:39:07;20.80;99.90
42803;DHT22;28447;48.682;9.022;2023-07-09T05:41:33;21.00;99.90
42803;DHT22;28447;48.682;9.022;2023-07-09T05:43:59;21.10;99.90
42803;DHT22;28447;48.682;9.022;2023-07-09T05:46:24;21.30;99.90
42803;DHT22;28447;48.682;9.022;2023-07-09T05:48:50;21.40;99.90
42803;DHT22;28447;48.682;9.022;2023-07-09T05:51:16;21.50;99.90
42803;DHT22;28447;48.682;9.022;2023-07-09T05:53:41;21.70;99.90
42803;DHT22;28447;48.682;9.022;2023-07-09T05:56:07;21.80;99.90
42803;DHT22;28447;48.682;9.022;2023-07-09T05:58:33;22.00;99.90
42803;DHT22;28447;48.682;9.022;2023-07-09T06:00:59;22.10;99.90
42803;DHT22;28447;48.682;9.022;2023-07-09T06:03:26;22.10;99.90
42803;DHT22;28447;48.682;9.022;2023-07-09T06:05:52;22.30;99.90
42803;DHT22;28447;48.682;9.022;2023-07-09T06:08:19;22.30;99.90
42803;DHT22;28447;48.682;9.022;2023-07-09T06:10:55;22.50;99.90
42803;DHT22;28447;48.682;9.022;2023-07-09T06:13:21;22.70;99.90
42803;DHT22;28447;48.682;9.022;2023-07-09T06:15:48;22.80;99.90
42803;DHT22;28447;48.682;9.022;2023-07-09T06:18:14;22.80;99.90
42803;DHT22;28447;48.682;9.022;2023-07-09T06:20:40;23.00;99.90
42803;DHT22;28447;48.682;9.022;2023-07-09T06:23:06;23.20;99.90
42803;DHT22;28447;48.682;9.022;2023-07-09T06:25:31;23.30;99.90
42803;DHT22;28447;48.682;9.022;2023-07-09T06:27:57;23.30;99.90
42803;DHT22;28447;48.682;9.022;2023-07-09T06:30:23;23.40;99.90
42803;DHT22;28447;48.682;9.022;2023-07-09T06:32:49;23.50;99.90
42803;DHT22;28447;48.682;9.022;2023-07-09T06:35:23;23.70;99.90
42803;DHT22;28447;48.682;9.022;2023-07-09T06:37:49;23.90;99.90
42803;DHT22;28447;48.682;9.022;2023-07-09T06:40:14;24.20;99.90
42803;DHT22;28447;48.682;9.022;2023-07-09T06:42:40;24.30;99.90
42803;DHT22;28447;48.682;9.022;2023-07-09T06:45:06;24.40;99.90
42803;DHT22;28447;48.682;9.022;2023-07-09T06:47:32;24.50;99.90
42803;DHT22;28447;48.682;9.022;2023-07-09T06:49:58;24.60;99.90
42803;DHT22;28447;48.682;9.022;2023-07-09T06:52:23;24.70;99.90
42803;DHT22;28447;48.682;9.022;2023-07-09T06:54:49;24.80;99.90
42803;DHT22;28447;48.682;9.022;2023-07-09T06:57:15;24.90;99.90
42803;DHT22;28447;48.682;9.022;2023-07-09T06:59:40;25.20;99.90
42803;DHT22;28447;48.682;9.022;2023-07-09T07:02:07;25.40;99.90
42803;DHT22;28447;48.682;9.022;2023-07-09T07:04:33;25.60;99.90
42803;DHT22;28447;48.682;9.022;2023-07-09T07:06:58;25.50;99.90
42803;DHT22;28447;48.682;9.022;2023-07-09T07:09:24;25.80;99.90
42803;DHT22;28447;48.682;9.022;2023-07-09T07:11:51;26.00;99.90
42803;DHT22;28447;48.682;9.022;2023-07-09T07:14:17;26.20;99.90
42803;DHT22;28447;48.682;9.022;2023-07-09T07:16:42;26.20;99.90
42803;DHT22;28447;48.682;9.022;2023-07-09T07:19:08;26.30;99.90
42803;DHT22;28447;48.682;9.022;2023-07-09T07:21:36;26.40;99.90
42803;DHT22;28447;48.682;9.022;2023-07-09T07:24:01;26.50;99.90
42803;DHT22;28447;48.682;9.022;2023-07-09T07:26:29;26.60;99.90
42803;DHT22;28447;48.682;9.022;2023-07-09T07:28:56;26.70;99.90
42803;DHT22;28447;48.682;9.022;2023-07-09T07:31:22;26.90;99.90
42803;DHT22;28447;48.682;9.022;2023-07-09T07:33:48;27.00;99.90
42803;DHT22;28447;48.682;9.022;2023-07-09T07:36:13;27.10;99.90
42803;DHT22;28447;48.682;9.022;2023-07-09T07:38:39;27.00;99.90
42803;DHT22;28447;48.682;9.022;2023-07-09T07:41:05;27.20;99.90
42803;DHT22;28447;48.682;9.022;2023-07-09T07:43:31;27.50;99.90
42803;DHT22;28447;48.682;9.022;2023-07-09T07:45:57;27.70;99.90
42803;DHT22;28447;48.682;9.022;2023-07-09T07:48:22;27.80;99.90
42803;DHT22;28447;48.682;9.022;2023-07-09T07:50:48;28.50;99.00
42803;DHT22;28447;48.682;9.022;2023-07-09T07:53:14;28.00;96.80
42803;DHT22;28447;48.682;9.022;2023-07-09T07:55:40;27.80;96.80
42803;DHT22;28447;48.682;9.022;2023-07-09T07:58:12;27.90;97.00
42803;DHT22;28447;48.682;9.022;2023-07-09T08:00:39;28.10;95.70
42803;DHT22;28447;48.682;9.022;2023-07-09T08:03:05;28.40;96.50
42803;DHT22;28447;48.682;9.022;2023-07-09T08:05:32;28.60;95.20
42803;DHT22;28447;48.682;9.022;2023-07-09T08:07:58;28.80;94.80
42803;DHT22;28447;48.682;9.022;2023-07-09T08:10:24;28.90;93.20
42803;DHT22;28447;48.682;9.022;2023-07-09T08:12:51;29.00;95.00
42803;DHT22;28447;48.682;9.022;2023-07-09T08:15:22;29.20;94.20
42803;DHT22;28447;48.682;9.022;2023-07-09T08:17:48;29.00;92.70
42803;DHT22;28447;48.682;9.022;2023-07-09T08:20:13;29.30;93.10
42803;DHT22;28447;48.682;9.022;2023-07-09T08:22:39;29.30;92.70
42803;DHT22;28447;48.682;9.022;2023-07-09T08:25:06;29.00;91.70
42803;DHT22;28447;48.682;9.022;2023-07-09T08:27:32;29.60;92.80
42803;DHT22;28447;48.682;9.022;2023-07-09T08:29:57;30.10;95.80
42803;DHT22;28447;48.682;9.022;2023-07-09T08:32:23;29.80;93.40
42803;DHT22;28447;48.682;9.022;2023-07-09T08:34:48;29.70;94.10
42803;DHT22;28447;48.682;9.022;2023-07-09T08:37:14;30.10;93.80
42803;DHT22;28447;48.682;9.022;2023-07-09T08:45:04;31.00;86.70
42803;DHT22;28447;48.682;9.022;2023-07-09T08:53:36;32.80;82.90
42803;DHT22;28447;48.682;9.022;2023-07-09T08:56:02;34.00;77.70
42803;DHT22;28447;48.682;9.022;2023-07-09T08:58:29;34.10;76.60
42803;DHT22;28447;48.682;9.022;2023-07-09T09:03:31;32.30;78.50
42803;DHT22;28447;48.682;9.022;2023-07-09T09:06:01;32.10;80.60
42803;DHT22;28447;48.682;9.022;2023-07-09T09:13:52;33.10;80.60
42803;DHT22;28447;48.682;9.022;2023-07-09T09:16:28;32.60;78.70
42803;DHT22;28447;48.682;9.022;2023-07-09T09:18:58;31.80;79.10
42803;DHT22;28447;48.682;9.022;2023-07-09T09:21:34;33.30;75.30
42803;DHT22;28447;48.682;9.022;2023-07-09T09:24:27;33.70;75.80
42803;DHT22;28447;48.682;9.022;2023-07-09T09:26:58;34.50;75.90
42803;DHT22;28447;48.682;9.022;2023-07-09T09:29:24;35.20;68.40
42803;DHT22;28447;48.682;9.022;2023-07-09T09:31:53;34.20;68.40
42803;DHT22;28447;48.682;9.022;2023-07-09T09:34:27;32.30;73.80
42803;DHT22;28447;48.682;9.022;2023-07-09T09:36:54;32.10;73.00
42803;DHT22;28447;48.682;9.022;2023-07-09T09:39:24;32.80;73.60
42803;DHT22;28447;48.682;9.022;2023-07-09T09:41:56;32.60;71.60
42803;DHT22;28447;48.682;9.022;2023-07-09T09:44:27;33.50;70.80
42803;DHT22;28447;48.682;9.022;2023-07-09T09:46:56;34.70;69.40
42803;DHT22;28447;48.682;9.022;2023-07-09T09:49:30;35.70;65.10
42803;DHT22;28447;48.682;9.022;2023-07-09T09:52:10;36.40;65.50
42803;DHT22;28447;48.682;9.022;2023-07-09T09:54:41;36.40;66.00
42803;DHT22;28447;48.682;9.022;2023-07-09T09:57:20;36.40;67.30
42803;DHT22;28447;48.682;9.022;2023-07-09T09:59:47;36.10;68.70
42803;DHT22;28447;48.682;9.022;2023-07-09T10:02:24;37.10;61.80
42803;DHT22;28447;48.682;9.022;2023-07-09T10:04:51;37.30;63.30
42803;DHT22;28447;48.682;9.022;2023-07-09T10:07:38;37.60;62.00
42803;DHT22;28447;48.682;9.022;2023-07-09T10:10:12;37.20;60.50
42803;DHT22;28447;48.682;9.022;2023-07-09T10:12:52;37.40;62.20
42803;DHT22;28447;48.682;9.022;2023-07-09T10:18:06;37.10;58.00
42803;DHT22;28447;48.682;9.022;2023-07-09T10:20:41;36.40;60.40
42803;DHT22;28447;48.682;9.022;2023-07-09T10:26:23;38.20;56.20
42803;DHT22;28447;48.682;9.022;2023-07-09T10:39:42;37.60;57.20
42803;DHT22;28447;48.682;9.022;2023-07-09T10:45:04;36.60;59.60
42803;DHT22;28447;48.682;9.022;2023-07-09T10:47:36;36.00;57.90
42803;DHT22;28447;48.682;9.022;2023-07-09T10:50:06;36.70;59.30
42803;DHT22;28447;48.682;9.022;2023-07-09T10:52:37;37.80;57.40
42803;DHT22;28447;48.682;9.022;2023-07-09T10:58:14;38.40;56.40
42803;DHT22;28447;48.682;9.022;2023-07-09T11:00:45;38.40;55.00
42803;DHT22;28447;48.682;9.022;2023-07-09T11:05:41;35.20;56.80
42803;DHT22;28447;48.682;9.022;2023-07-09T11:08:15;36.40;56.60
42803;DHT22;28447;48.682;9.022;2023-07-09T11:10:48;37.60;55.10
42803;DHT22;28447;48.682;9.022;2023-07-09T11:13:19;38.20;54.30
42803;DHT22;28447;48.682;9.022;2023-07-09T11:15:51;38.80;54.40
42803;DHT22;28447;48.682;9.022;2023-07-09T11:18:29;38.40;53.20
42803;DHT22;28447;48.682;9.022;2023-07-09T11:21:04;38.20;55.90
42803;DHT22;28447;48.682;9.022;2023-07-09T11:26:15;35.70;56.90
42803;DHT22;28447;48.682;9.022;2023-07-09T11:28:52;37.10;55.40
42803;DHT22;28447;48.682;9.022;2023-07-09T11:42:28;39.10;52.00
42803;DHT22;28447;48.682;9.022;2023-07-09T11:48:01;40.70;51.60
42803;DHT22;28447;48.682;9.022;2023-07-09T11:50:35;41.40;50.90
42803;DHT22;28447;48.682;9.022;2023-07-09T11:53:26;40.80;50.30
42803;DHT22;28447;48.682;9.022;2023-07-09T11:55:53;40.10;53.00
42803;DHT22;28447;48.682;9.022;2023-07-09T11:58:19;41.80;49.80
42803;DHT22;28447;48.682;9.022;2023-07-09T12:00:56;43.30;49.30
42803;DHT22;28447;48.682;9.022;2023-07-09T12:03:26;42.90;48.10
42803;DHT22;28447;48.682;9.022;2023-07-09T12:06:00;42.10;49.60
42803;DHT22;28447;48.682;9.022;2023-07-09T12:08:36;41.50;50.50
42803;DHT22;28447;48.682;9.022;2023-07-09T12:11:03;41.20;51.00
42803;DHT22;28447;48.682;9.022;2023-07-09T12:13:39;41.60;51.00
42803;DHT22;28447;48.682;9.022;2023-07-09T12:16:26;43.40;47.90
42803;DHT22;28447;48.682;9.022;2023-07-09T12:18:54;43.90;48.20
42803;DHT22;28447;48.682;9.022;2023-07-09T12:21:20;43.60;47.20
42803;DHT22;28447;48.682;9.022;2023-07-09T12:36:51;43.80;47.70
42803;DHT22;28447;48.682;9.022;2023-07-09T12:39:32;44.80;44.90
42803;DHT22;28447;48.682;9.022;2023-07-09T12:42:02;44.90;44.00
42803;DHT22;28447;48.682;9.022;2023-07-09T12:44:33;44.20;43.40
42803;DHT22;28447;48.682;9.022;2023-07-09T12:46:59;43.10;46.70
42803;DHT22;28447;48.682;9.022;2023-07-09T12:49:39;44.90;44.20
42803;DHT22;28447;48.682;9.022;2023-07-09T12:52:33;44.30;43.20
42803;DHT22;28447;48.682;9.022;2023-07-09T12:55:05;42.40;43.40
42803;DHT22;28447;48.682;9.022;2023-07-09T12:57:37;41.90;44.00
42803;DHT22;28447;48.682;9.022;2023-07-09T13:00:14;43.30;44.80
42803;DHT22;28447;48.682;9.022;2023-07-09T13:02:41;41.80;44.60
42803;DHT22;28447;48.682;9.022;2023-07-09T13:05:22;43.10;45.80
42803;DHT22;28447;48.682;9.022;2023-07-09T13:07:59;44.50;45.10
42803;DHT22;28447;48.682;9.022;2023-07-09T13:10:28;44.20;45.40
42803;DHT22;28447;48.682;9.022;2023-07-09T13:13:03;45.30;45.50
42803;DHT22;28447;48.682;9.022;2023-07-09T13:15:47;44.80;43.70
42803;DHT22;28447;48.682;9.022;2023-07-09T13:20:44;46.40;43.40
42803;DHT22;28447;48.682;9.022;2023-07-09T13:23:14;47.40;41.90
42803;DHT22;28447;48.682;9.022;2023-07-09T13:25:41;46.90;40.70
42803;DHT22;28447;48.682;9.022;2023-07-09T13:30:43;47.40;40.60
42803;DHT22;28447;48.682;9.022;2023-07-09T13:33:09;48.40;40.40
42803;DHT22;28447;48.682;9.022;2023-07-09T13:35:35;46.60;40.20
42803;DHT22;28447;48.682;9.022;2023-07-09T13:38:01;46.90;41.70
42803;DHT22;28447;48.682;9.022;2023-07-09T13:40:29;45.80;41.90
42803;DHT22;28447;48.682;9.022;2023-07-09T13:42:56;45.80;41.40
42803;DHT22;28447;48.682;9.022;2023-07-09T13:45:25;46.90;41.00
42803;DHT22;28447;48.682;9.022;2023-07-09T13:47:52;45.20;42.80
42803;DHT22;28447;48.682;9.022;2023-07-09T13:50:19;42.30;43.00
42803;DHT22;28447;48.682;9.022;2023-07-09T13:52:45;41.70;45.00
42803;DHT22;28447;48.682;9.022;2023-07-09T13:55:20;42.50;42.30
42803;DHT22;28447;48.682;9.022;2023-07-09T13:57:48;41.70;45.10
42803;DHT22;28447;48.682;9.022;2023-07-09T14:00:14;39.00;47.30
42803;DHT22;28447;48.682;9.022;2023-07-09T14:02:42;37.10;48.00
42803;DHT22;28447;48.682;9.022;2023-07-09T14:05:10;37.50;47.60
42803;DHT22;28447;48.682;9.022;2023-07-09T14:07:38;40.00;47.40
42803;DHT22;28447;48.682;9.022;2023-07-09T14:10:12;40.10;43.80
42803;DHT22;28447;48.682;9.022;2023-07-09T14:12:41;39.00;44.30
42803;DHT22;28447;48.682;9.022;2023-07-09T14:15:19;38.50;47.00
42803;DHT22;28447;48.682;9.022;2023-07-09T14:17:46;40.30;46.20
42803;DHT22;28447;48.682;9.022;2023-07-09T14:20:14;42.60;45.10
42803;DHT22;28447;48.682;9.022;2023-07-09T14:22:41;43.10;45.80
42803;DHT22;28447;48.682;9.022;2023-07-09T14:25:21;43.70;46.40
42803;DHT22;28447;48.682;9.022;2023-07-09T14:27:51;43.70;44.10
42803;DHT22;28447;48.682;9.022;2023-07-09T14:30:22;43.70;42.80
42803;DHT22;28447;48.682;9.022;2023-07-09T14:32:49;42.60;45.90
42803;DHT22;28447;48.682;9.022;2023-07-09T14:35:23;43.70;42.60
42803;DHT22;28447;48.682;9.022;2023-07-09T14:37:52;44.60;45.80
42803;DHT22;28447;48.682;9.022;2023-07-09T14:40:19;44.80;43.90
42803;DHT22;28447;48.682;9.022;2023-07-09T14:42:48;45.10;43.50
42803;DHT22;28447;48.682;9.022;2023-07-09T14:45:26;45.40;44.00
42803;DHT22;28447;48.682;9.022;2023-07-09T14:47:54;45.00;43.60
42803;DHT22;28447;48.682;9.022;2023-07-09T14:50:22;44.30;43.70
42803;DHT22;28447;48.682;9.022;2023-07-09T14:52:48;43.20;44.50
42803;DHT22;28447;48.682;9.022;2023-07-09T14:55:22;43.30;44.80
42803;DHT22;28447;48.682;9.022;2023-07-09T14:57:49;44.50;45.00
42803;DHT22;28447;48.682;9.022;2023-07-09T15:00:20;44.20;41.30
42803;DHT22;28447;48.682;9.022;2023-07-09T15:02:49;42.00;46.40
42803;DHT22;28447;48.682;9.022;2023-07-09T15:05:17;43.20;45.00
42803;DHT22;28447;48.682;9.022;2023-07-09T15:07:44;44.10;44.20
42803;DHT22;28447;48.682;9.022;2023-07-09T15:10:15;45.80;42.70
42803;DHT22;28447;48.682;9.022;2023-07-09T15:12:42;44.90;43.70
42803;DHT22;28447;48.682;9.022;2023-07-09T15:15:22;45.10;42.00
42803;DHT22;28447;48.682;9.022;2023-07-09T15:17:49;45.40;43.10
42803;DHT22;28447;48.682;9.022;2023-07-09T15:20:20;44.90;43.00
42803;DHT22;28447;48.682;9.022;2023-07-09T15:22:49;44.40;43.00
42803;DHT22;28447;48.682;9.022;2023-07-09T15:25:20;43.90;43.40
42803;DHT22;28447;48.682;9.022;2023-07-09T15:27:46;43.20;44.50
42803;DHT22;28447;48.682;9.022;2023-07-09T15:30:17;41.40;43.90
42803;DHT22;28447;48.682;9.022;2023-07-09T15:32:47;40.70;46.40
42803;DHT22;28447;48.682;9.022;2023-07-09T15:35:14;38.20;45.70
42803;DHT22;28447;48.682;9.022;2023-07-09T15:37:40;39.10;48.10
42803;DHT22;28447;48.682;9.022;2023-07-09T15:40:20;39.50;48.20
42803;DHT22;28447;48.682;9.022;2023-07-09T15:42:48;38.00;46.20
42803;DHT22;28447;48.682;9.022;2023-07-09T15:45:16;38.70;49.70
42803;DHT22;28447;48.682;9.022;2023-07-09T15:47:43;38.50;49.20
42803;DHT22;28447;48.682;9.022;2023-07-09T15:50:19;38.70;49.80
42803;DHT22;28447;48.682;9.022;2023-07-09T15:52:46;38.80;48.70
42803;DHT22;28447;48.682;9.022;2023-07-09T15:55:25;38.40;48.50
42803;DHT22;28447;48.682;9.022;2023-07-09T15:57:53;38.10;50.20
42803;DHT22;28447;48.682;9.022;2023-07-09T16:00:28;38.20;51.10
42803;DHT22;28447;48.682;9.022;2023-07-09T16:02:55;38.20;50.30
42803;DHT22;28447;48.682;9.022;2023-07-09T16:05:24;37.60;51.40
42803;DHT22;28447;48.682;9.022;2023-07-09T16:07:53;37.50;51.60
42803;DHT22;28447;48.682;9.022;2023-07-09T16:10:21;37.70;50.70
42803;DHT22;28447;48.682;9.022;2023-07-09T16:12:47;37.40;51.70
42803;DHT22;28447;48.682;9.022;2023-07-09T16:15:19;37.30;51.00
42803;DHT22;28447;48.682;9.022;2023-07-09T16:17:47;37.20;52.10
42803;DHT22;28447;48.682;9.022;2023-07-09T16:20:16;37.10;52.70
42803;DHT22;28447;48.682;9.022;2023-07-09T16:22:43;37.00;53.40
42803;DHT22;28447;48.682;9.022;2023-07-09T16:27:46;36.30;52.20
42803;DHT22;28447;48.682;9.022;2023-07-09T16:30:23;36.20;53.20
42803;DHT22;28447;48.682;9.022;2023-07-09T16:32:56;36.10;53.80
42803;DHT22;28447;48.682;9.022;2023-07-09T16:35:24;36.20;53.30
42803;DHT22;28447;48.682;9.022;2023-07-09T16:37:52;36.00;53.50
42803;DHT22;28447;48.682;9.022;2023-07-09T16:40:24;35.70;54.40
42803;DHT22;28447;48.682;9.022;2023-07-09T16:42:51;35.50;54.70
42803;DHT22;28447;48.682;9.022;2023-07-09T16:45:19;35.30;55.50
42803;DHT22;28447;48.682;9.022;2023-07-09T16:47:45;35.40;55.10
42803;DHT22;28447;48.682;9.022;2023-07-09T16:50:18;35.20;53.70
42803;DHT22;28447;48.682;9.022;2023-07-09T16:52:48;35.10;54.40
42803;DHT22;28447;48.682;9.022;2023-07-09T16:55:16;35.10;55.40
42803;DHT22;28447;48.682;9.022;2023-07-09T16:57:44;35.10;54.80
42803;DHT22;28447;48.682;9.022;2023-07-09T17:02:47;35.20;55.10
42803;DHT22;28447;48.682;9.022;2023-07-09T17:05:15;35.00;56.10
42803;DHT22;28447;48.682;9.022;2023-07-09T17:07:41;35.10;57.00
42803;DHT22;28447;48.682;9.022;2023-07-09T17:10:14;35.20;55.80
42803;DHT22;28447;48.682;9.022;2023-07-09T17:12:40;35.40;56.20
42803;DHT22;28447;48.682;9.022;2023-07-09T17:15:25;35.00;57.20
42803;DHT22;28447;48.682;9.022;2023-07-09T17:17:53;35.20;56.20
42803;DHT22;28447;48.682;9.022;2023-07-09T17:20:19;35.40;57.40
42803;DHT22;28447;48.682;9.022;2023-07-09T17:22:46;34.80;54.10
42803;DHT22;28447;48.682;9.022;2023-07-09T17:25:30;35.00;56.90
42803;DHT22;28447;48.682;9.022;2023-07-09T17:27:58;35.00;57.20
42803;DHT22;28447;48.682;9.022;2023-07-09T17:30:25;35.00;54.30
42803;DHT22;28447;48.682;9.022;2023-07-09T17:32:52;34.90;55.30
42803;DHT22;28447;48.682;9.022;2023-07-09T17:35:18;34.80;52.10
42803;DHT22;28447;48.682;9.022;2023-07-09T17:37:50;33.90;52.90
42803;DHT22;28447;48.682;9.022;2023-07-09T17:40:25;33.70;53.40
42803;DHT22;28447;48.682;9.022;2023-07-09T17:42:51;33.40;55.00
42803;DHT22;28447;48.682;9.022;2023-07-09T17:45:17;33.30;54.50
42803;DHT22;28447;48.682;9.022;2023-07-09T17:47:43;33.00;55.00
42803;DHT22;28447;48.682;9.022;2023-07-09T17:50:26;32.90;56.00
42803;DHT22;28447;48.682;9.022;2023-07-09T17:52:54;32.80;55.20
42803;DHT22;28447;48.682;9.022;2023-07-09T17:55:21;32.60;55.50
42803;DHT22;28447;48.682;9.022;2023-07-09T17:57:50;32.80;56.70
42803;DHT22;28447;48.682;9.022;2023-07-09T18:00:21;33.00;56.40
42803;DHT22;28447;48.682;9.022;2023-07-09T18:02:57;32.70;55.00
42803;DHT22;28447;48.682;9.022;2023-07-09T18:05:29;32.60;56.30
42803;DHT22;28447;48.682;9.022;2023-07-09T18:07:56;32.60;57.30
42803;DHT22;28447;48.682;9.022;2023-07-09T18:10:27;32.60;55.90
42803;DHT22;28447;48.682;9.022;2023-07-09T18:13:02;32.50;57.20
42803;DHT22;28447;48.682;9.022;2023-07-09T18:15:32;32.40;58.80
42803;DHT22;28447;48.682;9.022;2023-07-09T18:18:02;32.30;59.90
42803;DHT22;28447;48.682;9.022;2023-07-09T18:20:28;32.40;61.40
42803;DHT22;28447;48.682;9.022;2023-07-09T18:22:56;32.50;61.50
42803;DHT22;28447;48.682;9.022;2023-07-09T18:25:22;32.40;61.90
42803;DHT22;28447;48.682;9.022;2023-07-09T18:27:56;32.20;62.40
42803;DHT22;28447;48.682;9.022;2023-07-09T18:30:31;32.30;61.80
42803;DHT22;28447;48.682;9.022;2023-07-09T18:33:00;32.30;63.70
42803;DHT22;28447;48.682;9.022;2023-07-09T18:35:35;32.10;63.20
42803;DHT22;28447;48.682;9.022;2023-07-09T18:38:19;32.10;65.10
42803;DHT22;28447;48.682;9.022;2023-07-09T18:40:46;31.90;64.60
42803;DHT22;28447;48.682;9.022;2023-07-09T18:43:15;31.70;64.80
42803;DHT22;28447;48.682;9.022;2023-07-09T18:45:41;31.70;65.00
42803;DHT22;28447;48.682;9.022;2023-07-09T18:48:15;31.50;64.20
42803;DHT22;28447;48.682;9.022;2023-07-09T18:50:41;31.30;66.50
42803;DHT22;28447;48.682;9.022;2023-07-09T18:53:11;31.30;68.00
42803;DHT22;28447;48.682;9.022;2023-07-09T18:55:37;31.30;68.70
42803;DHT22;28447;48.682;9.022;2023-07-09T18:58:09;31.30;68.40
42803;DHT22;28447;48.682;9.022;2023-07-09T19:00:36;31.10;69.30
42803;DHT22;28447;48.682;9.022;2023-07-09T19:03:01;30.90;69.40
42803;DHT22;28447;48.682;9.022;2023-07-09T19:05:28;30.70;71.10
42803;DHT22;28447;48.682;9.022;2023-07-09T19:08:01;30.60;70.60
42803;DHT22;28447;48.682;9.022;2023-07-09T19:10:40;30.40;71.60
42803;DHT22;28447;48.682;9.022;2023-07-09T19:13:07;30.20;72.50
42803;DHT22;28447;48.682;9.022;2023-07-09T19:15:35;30.00;72.40
42803;DHT22;28447;48.682;9.022;2023-07-09T19:18:02;29.90;74.30
42803;DHT22;28447;48.682;9.022;2023-07-09T19:20:29;29.90;73.80
42803;DHT22;28447;48.682;9.022;2023-07-09T19:22:57;29.80;74.10
42803;DHT22;28447;48.682;9.022;2023-07-09T19:25:27;29.60;74.80
42803;DHT22;28447;48.682;9.022;2023-07-09T19:27:53;29.50;75.40
42803;DHT22;28447;48.682;9.022;2023-07-09T19:30:21;29.30;75.00
42803;DHT22;28447;48.682;9.022;2023-07-09T19:33:08;29.10;75.80
42803;DHT22;28447;48.682;9.022;2023-07-09T19:35:38;29.10;76.00
42803;DHT22;28447;48.682;9.022;2023-07-09T19:38:04;29.10;76.50
42803;DHT22;28447;48.682;9.022;2023-07-09T19:40:30;28.90;76.50
42803;DHT22;28447;48.682;9.022;2023-07-09T19:42:56;28.70;77.10
42803;DHT22;28447;48.682;9.022;2023-07-09T19:45:24;28.60;77.40
42803;DHT22;28447;48.682;9.022;2023-07-09T19:47:57;28.40;78.30
42803;DHT22;28447;48.682;9.022;2023-07-09T19:50:25;28.30;79.20
42803;DHT22;28447;48.682;9.022;2023-07-09T19:52:53;28.10;78.80
42803;DHT22;28447;48.682;9.022;2023-07-09T19:55:26;28.00;79.50
42803;DHT22;28447;48.682;9.022;2023-07-09T19:57:58;27.80;80.10
42803;DHT22;28447;48.682;9.022;2023-07-09T20:00:23;27.70;80.20
42803;DHT22;28447;48.682;9.022;2023-07-09T20:02:49;27.70;80.30
42803;DHT22;28447;48.682;9.022;2023-07-09T20:05:20;27.60;80.80
42803;DHT22;28447;48.682;9.022;2023-07-09T20:07:52;27.50;81.20
42803;DHT22;28447;48.682;9.022;2023-07-09T20:10:18;27.40;81.60
42803;DHT22;28447;48.682;9.022;2023-07-09T20:12:48;27.40;81.30
42803;DHT22;28447;48.682;9.022;2023-07-09T20:15:23;27.40;81.80
42803;DHT22;28447;48.682;9.022;2023-07-09T20:17:52;27.20;82.20
42803;DHT22;28447;48.682;9.022;2023-07-09T20:20:18;27.10;82.70
42803;DHT22;28447;48.682;9.022;2023-07-09T20:22:46;27.00;82.90
42803;DHT22;28447;48.682;9.022;2023-07-09T20:25:21;26.90;83.60
42803;DHT22;28447;48.682;9.022;2023-07-09T20:27:49;26.90;84.10
42803;DHT22;28447;48.682;9.022;2023-07-09T20:30:16;26.70;84.70
42803;DHT22;28447;48.682;9.022;2023-07-09T20:32:43;26.70;85.10
42803;DHT22;28447;48.682;9.022;2023-07-09T20:37:58;26.60;86.10
42803;DHT22;28447;48.682;9.022;2023-07-09T20:40:23;26.50;86.50
42803;DHT22;28447;48.682;9.022;2023-07-09T20:42:54;26.30;87.50
42803;DHT22;28447;48.682;9.022;2023-07-09T20:45:22;26.20;86.90
42803;DHT22;28447;48.682;9.022;2023-07-09T20:47:52;26.20;87.70
42803;DHT22;28447;48.682;9.022;2023-07-09T20:50:20;26.20;88.30
42803;DHT22;28447;48.682;9.022;2023-07-09T20:52:46;26.00;88.60
42803;DHT22;28447;48.682;9.022;2023-07-09T20:55:17;25.90;88.50
42803;DHT22;28447;48.682;9.022;2023-07-09T20:57:44;25.80;89.70
42803;DHT22;28447;48.682;9.022;2023-07-09T21:00:16;25.70;89.50
42803;DHT22;28447;48.682;9.022;2023-07-09T21:02:42;25.70;90.00
42803;DHT22;28447;48.682;9.022;2023-07-09T21:05:11;25.70;89.70
42803;DHT22;28447;48.682;9.022;2023-07-09T21:07:46;25.60;90.00
42803;DHT22;28447;48.682;9.022;2023-07-09T21:10:23;25.40;90.40